SKY382 RJKA-RJFK
Flight info
| Callsign | SKY382 |
|---|---|
| Flight time | 0h 37m |
| Altitude | 27000 |
| Route | RURIK B597 TGE Y14 KINKO |
| Aircraft | B738/M-SDE2E3FGHIRWXY/LB1 |
Departure
| Time | 2026-04-29 02:53 |
|---|---|
| Airport | Amami Airport (RJKA) |
Arrival
| Time | 2026-04-29 03:30 |
|---|---|
| Airport | Kagoshima Airport (RJFK) |
| Time | Latitude | Longitude | Altitude | Speed | Heading |
|---|---|---|---|---|---|
| 2026-04-29 02:34 | 28.43163 | 129.70922 | 29 ft | 0 kts | 295° |
| 2026-04-29 02:43 | 28.43159 | 129.70931 | 29 ft | 8 kts | 295° |
| 2026-04-29 02:43 | 28.43137 | 129.70985 | 29 ft | 8 kts | 295° |
| 2026-04-29 02:43 | 28.43138 | 129.71024 | 29 ft | 0 kts | 205° |
| 2026-04-29 02:47 | 28.43137 | 129.71024 | 29 ft | 1 kts | 205° |
| 2026-04-29 02:47 | 28.43103 | 129.71021 | 29 ft | 10 kts | 178° |
| 2026-04-29 02:48 | 28.43002 | 129.71005 | 30 ft | 20 kts | 203° |
| 2026-04-29 02:48 | 28.42862 | 129.70931 | 31 ft | 23 kts | 205° |
| 2026-04-29 02:48 | 28.42722 | 129.70855 | 30 ft | 22 kts | 205° |
| 2026-04-29 02:48 | 28.42586 | 129.70781 | 33 ft | 21 kts | 206° |
| 2026-04-29 02:49 | 28.42456 | 129.70706 | 34 ft | 21 kts | 206° |
| 2026-04-29 02:49 | 28.42328 | 129.70678 | 35 ft | 20 kts | 136° |
| 2026-04-29 02:49 | 28.42295 | 129.70819 | 35 ft | 19 kts | 55° |
| 2026-04-29 02:49 | 28.42301 | 129.70826 | 36 ft | 19 kts | 47° |
| 2026-04-29 02:50 | 28.42313 | 129.70839 | 36 ft | 19 kts | 38° |
| 2026-04-29 02:50 | 28.42533 | 129.70960 | 34 ft | 77 kts | 25° |
| 2026-04-29 02:51 | 28.43300 | 129.71378 | 48 ft | 170 kts | 26° |
| 2026-04-29 02:52 | 28.43437 | 129.71452 | 98 ft | 176 kts | 25° |
| 2026-04-29 02:52 | 28.43879 | 129.71694 | 390 ft | 187 kts | 25° |
| 2026-04-29 02:53 | 28.44920 | 129.72272 | 1625 ft | 188 kts | 26° |
| 2026-04-29 02:54 | 28.46115 | 129.72957 | 2970 ft | 205 kts | 26° |
| 2026-04-29 02:54 | 28.47492 | 129.73749 | 3688 ft | 238 kts | 26° |
| 2026-04-29 02:54 | 28.49001 | 129.74618 | 4784 ft | 250 kts | 26° |
| 2026-04-29 02:54 | 28.50652 | 129.75567 | 5607 ft | 283 kts | 26° |
| 2026-04-29 02:55 | 28.52542 | 129.76654 | 6056 ft | 327 kts | 26° |
| 2026-04-29 02:55 | 28.54707 | 129.77898 | 6439 ft | 367 kts | 26° |
| 2026-04-29 02:55 | 28.57032 | 129.79235 | 7553 ft | 377 kts | 26° |
| 2026-04-29 02:55 | 28.59354 | 129.80570 | 8882 ft | 380 kts | 26° |
| 2026-04-29 02:56 | 28.61745 | 129.81944 | 10084 ft | 387 kts | 26° |
| 2026-04-29 02:56 | 28.64165 | 129.83336 | 11167 ft | 394 kts | 26° |
| 2026-04-29 02:56 | 28.66634 | 129.84756 | 12197 ft | 400 kts | 26° |
| 2026-04-29 02:56 | 28.69149 | 129.86204 | 13177 ft | 406 kts | 26° |
| 2026-04-29 02:57 | 28.71686 | 129.87665 | 14091 ft | 412 kts | 27° |
| 2026-04-29 02:57 | 28.74234 | 129.89134 | 14949 ft | 417 kts | 27° |
| 2026-04-29 02:57 | 28.76846 | 129.90639 | 15766 ft | 422 kts | 27° |
| 2026-04-29 02:57 | 28.79492 | 129.92166 | 16538 ft | 427 kts | 27° |
| 2026-04-29 02:58 | 28.82158 | 129.93704 | 17269 ft | 433 kts | 27° |
| 2026-04-29 02:58 | 28.84867 | 129.95269 | 18023 ft | 438 kts | 27° |
| 2026-04-29 02:58 | 28.87593 | 129.96844 | 18775 ft | 442 kts | 27° |
| 2026-04-29 02:58 | 28.90351 | 129.98439 | 19465 ft | 446 kts | 27° |
| 2026-04-29 02:59 | 28.93133 | 130.00049 | 20096 ft | 451 kts | 27° |
| 2026-04-29 02:59 | 28.95953 | 130.01681 | 20705 ft | 455 kts | 27° |
| 2026-04-29 02:59 | 28.98795 | 130.03327 | 21293 ft | 459 kts | 27° |
| 2026-04-29 02:59 | 29.01654 | 130.04985 | 21855 ft | 463 kts | 27° |
| 2026-04-29 03:00 | 29.04510 | 130.06641 | 22417 ft | 466 kts | 27° |
| 2026-04-29 03:00 | 29.07415 | 130.08327 | 22932 ft | 470 kts | 27° |
| 2026-04-29 03:00 | 29.10345 | 130.10029 | 23415 ft | 474 kts | 27° |
| 2026-04-29 03:00 | 29.13295 | 130.11743 | 23876 ft | 477 kts | 27° |
| 2026-04-29 03:01 | 29.16267 | 130.13471 | 24314 ft | 480 kts | 27° |
| 2026-04-29 03:01 | 29.19262 | 130.15214 | 24750 ft | 483 kts | 27° |
| 2026-04-29 03:01 | 29.22272 | 130.16968 | 25169 ft | 486 kts | 27° |
| 2026-04-29 03:01 | 29.25279 | 130.18720 | 25559 ft | 489 kts | 27° |
| 2026-04-29 03:02 | 29.28342 | 130.20505 | 25921 ft | 491 kts | 27° |
| 2026-04-29 03:02 | 29.31498 | 130.22018 | 26218 ft | 493 kts | 15° |
| 2026-04-29 03:02 | 29.34849 | 130.22868 | 26618 ft | 492 kts | 11° |
| 2026-04-29 03:02 | 29.38209 | 130.23628 | 26978 ft | 493 kts | 11° |
| 2026-04-29 03:03 | 29.41600 | 130.24387 | 26987 ft | 497 kts | 11° |
| 2026-04-29 03:03 | 29.44986 | 130.25159 | 26994 ft | 495 kts | 11° |
| 2026-04-29 03:03 | 29.48356 | 130.25948 | 26996 ft | 492 kts | 11° |
| 2026-04-29 03:03 | 29.51702 | 130.26749 | 26999 ft | 490 kts | 12° |
| 2026-04-29 03:04 | 29.55054 | 130.27563 | 27006 ft | 491 kts | 12° |
| 2026-04-29 03:04 | 29.58397 | 130.28383 | 27007 ft | 491 kts | 12° |
| 2026-04-29 03:04 | 29.61736 | 130.29204 | 27003 ft | 491 kts | 12° |
| 2026-04-29 03:04 | 29.65076 | 130.30025 | 27001 ft | 491 kts | 12° |
| 2026-04-29 03:05 | 29.68422 | 130.30849 | 27000 ft | 491 kts | 12° |
| 2026-04-29 03:05 | 29.71774 | 130.31673 | 27002 ft | 491 kts | 12° |
| 2026-04-29 03:05 | 29.75116 | 130.32494 | 27001 ft | 491 kts | 12° |
| 2026-04-29 03:05 | 29.78473 | 130.33319 | 27002 ft | 491 kts | 12° |
| 2026-04-29 03:06 | 29.81818 | 130.34142 | 27001 ft | 491 kts | 12° |
| 2026-04-29 03:06 | 29.85167 | 130.34966 | 27002 ft | 491 kts | 12° |
| 2026-04-29 03:06 | 29.88505 | 130.35788 | 27000 ft | 491 kts | 12° |
| 2026-04-29 03:06 | 29.91816 | 130.36604 | 27001 ft | 491 kts | 12° |
| 2026-04-29 03:07 | 29.95169 | 130.37430 | 27002 ft | 491 kts | 12° |
| 2026-04-29 03:07 | 29.98518 | 130.38257 | 27002 ft | 491 kts | 12° |
| 2026-04-29 03:07 | 30.01865 | 130.39083 | 27002 ft | 491 kts | 12° |
| 2026-04-29 03:07 | 30.05217 | 130.39912 | 27002 ft | 491 kts | 12° |
| 2026-04-29 03:08 | 30.08557 | 130.40738 | 27002 ft | 491 kts | 12° |
| 2026-04-29 03:08 | 30.11897 | 130.41564 | 27001 ft | 491 kts | 12° |
| 2026-04-29 03:08 | 30.15287 | 130.42404 | 27002 ft | 491 kts | 12° |
| 2026-04-29 03:08 | 30.18635 | 130.43233 | 27001 ft | 491 kts | 12° |
| 2026-04-29 03:09 | 30.21977 | 130.44062 | 27001 ft | 491 kts | 12° |
| 2026-04-29 03:09 | 30.25317 | 130.44891 | 27006 ft | 491 kts | 12° |
| 2026-04-29 03:09 | 30.28673 | 130.45724 | 27002 ft | 491 kts | 12° |
| 2026-04-29 03:09 | 30.32010 | 130.46553 | 27003 ft | 491 kts | 12° |
| 2026-04-29 03:10 | 30.35312 | 130.47374 | 27001 ft | 492 kts | 12° |
| 2026-04-29 03:10 | 30.38705 | 130.48219 | 27001 ft | 491 kts | 12° |
| 2026-04-29 03:10 | 30.42012 | 130.49042 | 27000 ft | 491 kts | 12° |
| 2026-04-29 03:10 | 30.45355 | 130.49875 | 27004 ft | 491 kts | 12° |
| 2026-04-29 03:11 | 30.48694 | 130.50708 | 27001 ft | 491 kts | 12° |
| 2026-04-29 03:11 | 30.52049 | 130.51545 | 26999 ft | 491 kts | 12° |
| 2026-04-29 03:11 | 30.55395 | 130.52380 | 27000 ft | 491 kts | 12° |
| 2026-04-29 03:11 | 30.58785 | 130.53227 | 27002 ft | 491 kts | 12° |
| 2026-04-29 03:12 | 30.62080 | 130.54051 | 26996 ft | 489 kts | 12° |
| 2026-04-29 03:12 | 30.65397 | 130.54882 | 26992 ft | 485 kts | 12° |
| 2026-04-29 03:12 | 30.68699 | 130.55708 | 26995 ft | 484 kts | 12° |
| 2026-04-29 03:12 | 30.71993 | 130.56534 | 26994 ft | 480 kts | 12° |
| 2026-04-29 03:13 | 30.75225 | 130.57344 | 26231 ft | 474 kts | 12° |
| 2026-04-29 03:13 | 30.76747 | 130.57726 | 25815 ft | 472 kts | 12° |
| 2026-04-29 03:13 | 30.77014 | 130.57793 | 25751 ft | 472 kts | 12° |
| 2026-04-29 03:13 | 30.80192 | 130.58591 | 25041 ft | 464 kts | 12° |
| 2026-04-29 03:14 | 30.83347 | 130.59384 | 24231 ft | 460 kts | 12° |
| 2026-04-29 03:14 | 30.86458 | 130.60166 | 23426 ft | 455 kts | 12° |
| 2026-04-29 03:14 | 30.89531 | 130.60939 | 22623 ft | 450 kts | 12° |
| 2026-04-29 03:14 | 30.92590 | 130.61708 | 21815 ft | 446 kts | 12° |
| 2026-04-29 03:15 | 30.95565 | 130.62458 | 21027 ft | 442 kts | 12° |
| 2026-04-29 03:15 | 30.98560 | 130.63213 | 20226 ft | 438 kts | 12° |
| 2026-04-29 03:15 | 31.01559 | 130.63969 | 19421 ft | 433 kts | 12° |
| 2026-04-29 03:15 | 31.04457 | 130.64700 | 18640 ft | 429 kts | 12° |
| 2026-04-29 03:16 | 31.07360 | 130.65433 | 17854 ft | 425 kts | 12° |
| 2026-04-29 03:16 | 31.10236 | 130.66160 | 17073 ft | 421 kts | 12° |
| 2026-04-29 03:16 | 31.13088 | 130.66881 | 16295 ft | 417 kts | 12° |
| 2026-04-29 03:16 | 31.15908 | 130.67594 | 15522 ft | 413 kts | 12° |
| 2026-04-29 03:17 | 31.18702 | 130.68302 | 14752 ft | 409 kts | 12° |
| 2026-04-29 03:17 | 31.21467 | 130.69002 | 13991 ft | 405 kts | 12° |
| 2026-04-29 03:17 | 31.24207 | 130.69697 | 13237 ft | 401 kts | 12° |
| 2026-04-29 03:17 | 31.26921 | 130.70385 | 12483 ft | 397 kts | 12° |
| 2026-04-29 03:18 | 31.29605 | 130.71066 | 11735 ft | 393 kts | 12° |
| 2026-04-29 03:18 | 31.32263 | 130.71776 | 10985 ft | 389 kts | 16° |
| 2026-04-29 03:18 | 31.34675 | 130.73161 | 10129 ft | 389 kts | 36° |
| 2026-04-29 03:18 | 31.36769 | 130.75149 | 9325 ft | 386 kts | 39° |
| 2026-04-29 03:19 | 31.38841 | 130.77145 | 8549 ft | 383 kts | 39° |
| 2026-04-29 03:19 | 31.40728 | 130.78941 | 7916 ft | 379 kts | 39° |
| 2026-04-29 03:19 | 31.42767 | 130.80860 | 7482 ft | 369 kts | 39° |
| 2026-04-29 03:19 | 31.44730 | 130.82697 | 7243 ft | 353 kts | 38° |
| 2026-04-29 03:20 | 31.46632 | 130.84478 | 7076 ft | 338 kts | 38° |
| 2026-04-29 03:20 | 31.48413 | 130.86144 | 6801 ft | 318 kts | 38° |
| 2026-04-29 03:20 | 31.50100 | 130.87725 | 6438 ft | 304 kts | 38° |
| 2026-04-29 03:20 | 31.51886 | 130.88935 | 6031 ft | 292 kts | 17° |
| 2026-04-29 03:21 | 31.53833 | 130.89123 | 5670 ft | 283 kts | 348° |
| 2026-04-29 03:21 | 31.55648 | 130.88401 | 5425 ft | 270 kts | 337° |
| 2026-04-29 03:21 | 31.57309 | 130.87491 | 5201 ft | 254 kts | 332° |
| 2026-04-29 03:21 | 31.58811 | 130.86515 | 4929 ft | 240 kts | 329° |
| 2026-04-29 03:22 | 31.60223 | 130.85591 | 4785 ft | 223 kts | 330° |
| 2026-04-29 03:22 | 31.61523 | 130.84727 | 4708 ft | 205 kts | 329° |
| 2026-04-29 03:22 | 31.62718 | 130.83920 | 4535 ft | 196 kts | 329° |
| 2026-04-29 03:22 | 31.63906 | 130.83112 | 4270 ft | 198 kts | 329° |
| 2026-04-29 03:23 | 31.65093 | 130.82307 | 4031 ft | 195 kts | 329° |
| 2026-04-29 03:23 | 31.66251 | 130.81519 | 3763 ft | 194 kts | 329° |
| 2026-04-29 03:23 | 31.67410 | 130.80728 | 3504 ft | 191 kts | 329° |
| 2026-04-29 03:23 | 31.68547 | 130.79955 | 3259 ft | 187 kts | 329° |
| 2026-04-29 03:24 | 31.69659 | 130.79199 | 3014 ft | 182 kts | 329° |
| 2026-04-29 03:24 | 31.70743 | 130.78462 | 2787 ft | 179 kts | 329° |
| 2026-04-29 03:24 | 31.71830 | 130.77720 | 2531 ft | 183 kts | 329° |
| 2026-04-29 03:24 | 31.72206 | 130.77466 | 2457 ft | 183 kts | 329° |
| 2026-04-29 03:25 | 31.73217 | 130.76780 | 2210 ft | 176 kts | 329° |
| 2026-04-29 03:25 | 31.74250 | 130.76077 | 2000 ft | 167 kts | 329° |
| 2026-04-29 03:25 | 31.75209 | 130.75426 | 1780 ft | 154 kts | 329° |
| 2026-04-29 03:25 | 31.76110 | 130.74814 | 1589 ft | 147 kts | 329° |
| 2026-04-29 03:26 | 31.76524 | 130.74531 | 1474 ft | 146 kts | 329° |
| 2026-04-29 03:26 | 31.77121 | 130.74125 | 1366 ft | 144 kts | 329° |
| 2026-04-29 03:26 | 31.78003 | 130.73532 | 1171 ft | 146 kts | 330° |
| 2026-04-29 03:26 | 31.78725 | 130.73042 | 1017 ft | 146 kts | 328° |
| 2026-04-29 03:28 | 31.79095 | 130.72777 | 938 ft | 146 kts | 328° |
| 2026-04-29 03:28 | 31.79625 | 130.72420 | 913 ft | 133 kts | 329° |
| 2026-04-29 03:30 | 31.80262 | 130.71991 | 914 ft | 99 kts | 330° |
| 2026-04-29 03:30 | 31.80726 | 130.71670 | 912 ft | 55 kts | 324° |
| 2026-04-29 03:30 | 31.80842 | 130.71427 | 916 ft | 19 kts | 237° |
| 2026-04-29 03:31 | 31.80705 | 130.71466 | 910 ft | 25 kts | 151° |
| 2026-04-29 03:31 | 31.80536 | 130.71579 | 909 ft | 29 kts | 149° |
| 2026-04-29 03:31 | 31.80369 | 130.71690 | 906 ft | 27 kts | 153° |
| 2026-04-29 03:32 | 31.80211 | 130.71782 | 906 ft | 15 kts | 177° |
| 2026-04-29 03:32 | 31.80159 | 130.71727 | 901 ft | 9 kts | 238° |
| 2026-04-29 03:32 | 31.80142 | 130.71694 | 903 ft | 0 kts | 239° |